createdAt,value
2022-08-27T00:04:11.024Z,99753.31
2022-08-27T00:09:11.799Z,99747.19
2022-08-27T00:14:14.894Z,99753.16
2022-08-27T00:19:15.569Z,99748.59
2022-08-27T00:24:16.364Z,99758.53
2022-08-27T00:29:18.716Z,99751.66
2022-08-27T00:34:19.718Z,99753.81
2022-08-27T00:39:20.985Z,99757.22
2022-08-27T00:44:22.973Z,99760.69
2022-08-27T00:49:28.909Z,99762.44
2022-08-27T00:54:30.689Z,99758.66
2022-08-27T00:59:33.016Z,99759.75
2022-08-27T01:04:35.174Z,99756.13
2022-08-27T01:09:36.568Z,99754.81
2022-08-27T01:14:39.032Z,99746.06
2022-08-27T01:19:44.793Z,99749.03
2022-08-27T01:24:49.569Z,99748.50
2022-08-27T01:29:50.337Z,99759.72
2022-08-27T01:34:51.761Z,99764.13
2022-08-27T01:39:55.502Z,99756.09
2022-08-27T01:44:59.099Z,99760.56
2022-08-27T01:50:00.486Z,99761.13
2022-08-27T01:55:03.130Z,99754.03
2022-08-27T02:00:05.772Z,99752.75
2022-08-27T02:05:12.715Z,99733.19
2022-08-27T02:10:17.617Z,99730.75
2022-08-27T02:15:19.538Z,99741.50
2022-08-27T02:20:21.684Z,99742.91
2022-08-27T02:25:23.992Z,99731.63
2022-08-27T02:30:25.553Z,99728.72
2022-08-27T02:35:26.422Z,99726.03
2022-08-27T02:40:29.658Z,99721.09
2022-08-27T02:45:30.472Z,99723.31
2022-08-27T02:50:31.215Z,99722.22
2022-08-27T02:55:34.272Z,99722.13
2022-08-27T03:00:37.957Z,99716.63
2022-08-27T03:05:39.117Z,99714.22
2022-08-27T03:10:41.921Z,99713.00
2022-08-27T03:15:42.661Z,99720.75
2022-08-27T03:20:45.943Z,99723.88
2022-08-27T03:25:51.455Z,99728.00
2022-08-27T03:30:54.407Z,99731.63
2022-08-27T03:35:55.194Z,99728.91
2022-08-27T03:40:57.351Z,99733.66
2022-08-27T03:46:05.601Z,99740.19
2022-08-27T03:51:08.155Z,99749.41
2022-08-27T03:56:10.711Z,99748.78
2022-08-27T04:01:11.389Z,99748.66
2022-08-27T04:06:12.084Z,99745.88
2022-08-27T04:11:14.228Z,99745.41
2022-08-27T04:16:14.993Z,99751.25
2022-08-27T04:21:16.425Z,99741.16
2022-08-27T04:26:19.345Z,99742.66
2022-08-27T04:31:21.596Z,99744.38
2022-08-27T04:36:22.349Z,99740.09
2022-08-27T04:41:26.538Z,99752.22
2022-08-27T04:46:29.697Z,99748.59
2022-08-27T04:51:31.226Z,99749.56
2022-08-27T04:56:34.212Z,99749.84
2022-08-27T05:01:35.521Z,99742.63
2022-08-27T05:06:36.809Z,99732.75
2022-08-27T05:11:39.006Z,99736.69
2022-08-27T05:16:40.523Z,99732.59
2022-08-27T05:21:46.644Z,99737.22
2022-08-27T05:26:49.413Z,99737.22
2022-08-27T05:31:50.391Z,99734.63
2022-08-27T05:36:51.850Z,99732.38
2022-08-27T05:41:57.937Z,99723.34
2022-08-27T05:46:58.611Z,99724.38
2022-08-27T05:52:00.372Z,99724.72
2022-08-27T05:57:02.379Z,99727.31
2022-08-27T06:02:03.798Z,99727.59
2022-08-27T06:07:06.574Z,99740.53
2022-08-27T06:12:09.957Z,99748.97
2022-08-27T06:17:10.715Z,99745.63
2022-08-27T06:22:11.572Z,99747.09
2022-08-27T06:27:16.989Z,99758.72
2022-08-27T06:32:17.688Z,99754.31
2022-08-27T06:37:18.466Z,99754.59
2022-08-27T06:42:20.478Z,99765.59
2022-08-27T06:47:26.611Z,99757.50
2022-08-27T06:52:27.283Z,99761.38
2022-08-27T06:57:29.291Z,99769.75
2022-08-27T07:02:29.975Z,99772.75
2022-08-27T07:07:34.494Z,99773.50
2022-08-27T07:12:40.282Z,99777.63
2022-08-27T07:17:41.192Z,99781.16
2022-08-27T07:22:43.116Z,99785.13
2022-08-27T07:27:45.372Z,99770.69
2022-08-27T07:32:47.511Z,99767.72
2022-08-27T07:37:48.208Z,99774.63
2022-08-27T07:43:07.853Z,99787.06
2022-08-27T07:48:08.534Z,99794.94
2022-08-27T07:53:09.234Z,99797.28
2022-08-27T07:58:13.919Z,99804.94
2022-08-27T08:03:16.428Z,99807.09
2022-08-27T08:08:17.098Z,99807.00
2022-08-27T08:13:19.771Z,99810.88
2022-08-27T08:18:20.674Z,99812.56
2022-08-27T08:23:21.729Z,99814.78
2022-08-27T08:28:23.784Z,99807.31
2022-08-27T08:33:25.174Z,99816.13
2022-08-27T08:38:26.702Z,99820.31
2022-08-27T08:43:33.764Z,99830.38
2022-08-27T08:48:36.556Z,99834.59
2022-08-27T08:53:47.156Z,99836.34
2022-08-27T08:58:53.052Z,99833.41
2022-08-27T09:03:57.259Z,99833.41
2022-08-27T09:09:01.648Z,99839.66
2022-08-27T09:14:13.374Z,99843.16
2022-08-27T09:19:14.268Z,99842.94
2022-08-27T09:24:22.188Z,99853.50
2022-08-27T09:29:27.383Z,99850.56
2022-08-27T09:34:35.543Z,99852.56
2022-08-27T09:39:45.134Z,99853.50
2022-08-27T09:44:53.380Z,99851.09
2022-08-27T09:50:07.279Z,99852.56
2022-08-27T09:55:08.732Z,99854.94
2022-08-27T10:00:16.916Z,99855.78
2022-08-27T10:05:29.117Z,99858.22
2022-08-27T10:10:40.781Z,99860.31
2022-08-27T10:15:50.715Z,99859.72
2022-08-27T10:21:05.723Z,99857.97
2022-08-27T10:26:13.861Z,99849.13
2022-08-27T10:31:24.710Z,99854.81
2022-08-27T10:36:37.829Z,99851.50
2022-08-27T10:41:44.410Z,99852.22
2022-08-27T10:46:57.045Z,99850.66
2022-08-27T10:52:08.279Z,99856.59
2022-08-27T10:57:35.406Z,99854.72
2022-08-27T11:02:45.244Z,99851.28
2022-08-27T11:07:48.495Z,99855.22
2022-08-27T11:12:52.854Z,99853.25
2022-08-27T11:18:01.304Z,99862.16
2022-08-27T11:23:06.765Z,99861.66
2022-08-27T11:28:09.505Z,99867.38
2022-08-27T11:33:18.412Z,99862.25
2022-08-27T11:38:33.888Z,99863.81
2022-08-27T11:43:37.325Z,99871.28
2022-08-27T11:48:41.922Z,99873.22
2022-08-27T11:53:56.945Z,99860.69
2022-08-27T11:59:09.232Z,99864.47
2022-08-27T12:04:23.758Z,99859.13
2022-08-27T12:09:25.024Z,99857.00
2022-08-27T12:14:40.892Z,99858.66
2022-08-27T12:20:00.800Z,99853.34
2022-08-27T12:25:01.542Z,99849.06
2022-08-27T12:30:07.880Z,99851.94
2022-08-27T12:35:17.350Z,99848.25
2022-08-27T12:40:24.425Z,99843.66
2022-08-27T12:45:27.324Z,99848.69
2022-08-27T12:50:31.095Z,99840.41
2022-08-27T12:55:47.029Z,99846.63
2022-08-27T13:01:09.951Z,99848.59
2022-08-27T13:06:21.013Z,99845.34
2022-08-27T13:11:25.389Z,99844.84
2022-08-27T13:16:26.220Z,99842.81
2022-08-27T13:21:30.474Z,99838.47
2022-08-27T13:26:34.075Z,99842.09
2022-08-27T13:31:36.226Z,99842.25
2022-08-27T13:36:59.595Z,99841.50
2022-08-27T13:42:03.217Z,99834.13
2022-08-27T13:47:07.291Z,99834.53
2022-08-27T13:52:23.818Z,99837.31
2022-08-27T13:57:27.091Z,99833.25
2022-08-27T14:02:29.493Z,99839.41
2022-08-27T14:07:35.937Z,99833.59
2022-08-27T14:12:39.307Z,99836.03
2022-08-27T14:17:40.255Z,99841.78
2022-08-27T14:22:42.301Z,99842.16
2022-08-27T14:27:52.845Z,99842.53
2022-08-27T14:32:56.272Z,99841.94
2022-08-27T14:38:01.414Z,99849.75
2022-08-27T14:43:02.136Z,99845.13
2022-08-27T14:48:02.970Z,99847.66
2022-08-27T14:53:05.036Z,99848.31
2022-08-27T14:58:05.737Z,99844.03
2022-08-27T15:03:07.695Z,99847.59
2022-08-27T15:08:13.364Z,99854.66
2022-08-27T15:13:14.451Z,99858.91
2022-08-27T15:18:15.155Z,99854.44
2022-08-27T15:23:17.897Z,99859.25
2022-08-27T15:28:19.116Z,99851.75
2022-08-27T15:33:20.961Z,99848.22
2022-08-27T15:38:23.005Z,99847.44
2022-08-27T15:43:25.465Z,99840.56
2022-08-27T15:48:26.285Z,99843.28
2022-08-27T15:53:28.595Z,99832.66
2022-08-27T15:58:29.325Z,99840.88
2022-08-27T16:03:35.941Z,99838.13
2022-08-27T16:08:41.765Z,99826.69
2022-08-27T16:13:43.620Z,99828.69
2022-08-27T16:18:44.484Z,99830.72
2022-08-27T16:23:46.751Z,99825.75
2022-08-27T16:28:47.441Z,99816.81
2022-08-27T16:33:48.688Z,99821.19
2022-08-27T16:38:51.478Z,99811.97
2022-08-27T16:43:52.184Z,99821.31
2022-08-27T16:49:10.665Z,99812.28
2022-08-27T16:54:14.065Z,99818.06
2022-08-27T16:59:15.791Z,99813.22
2022-08-27T17:04:26.515Z,99826.53
2022-08-27T17:09:32.613Z,99832.31
2022-08-27T17:14:37.748Z,99837.03
2022-08-27T17:19:38.452Z,99840.56
2022-08-27T17:24:40.648Z,99859.38
2022-08-27T17:29:41.345Z,99859.81
2022-08-27T17:34:42.166Z,99870.50
2022-08-27T17:39:44.267Z,99874.38
2022-08-27T17:44:44.938Z,99877.91
2022-08-27T17:49:45.795Z,99879.94
2022-08-27T17:54:51.020Z,99889.88
2022-08-27T17:59:52.286Z,99894.81
2022-08-27T18:04:53.074Z,99891.47
2022-08-27T18:09:55.739Z,99895.75
2022-08-27T18:15:04.363Z,99894.97
2022-08-27T18:20:06.920Z,99905.97
2022-08-27T18:25:10.432Z,99912.31
2022-08-27T18:30:12.931Z,99911.38
2022-08-27T18:35:16.949Z,99916.72
2022-08-27T18:40:21.547Z,99922.78
2022-08-27T18:45:25.027Z,99924.63
2022-08-27T18:50:27.542Z,99931.53
2022-08-27T18:55:29.530Z,99936.31
2022-08-27T19:00:30.416Z,99932.44
2022-08-27T19:05:31.205Z,99931.75
2022-08-27T19:10:33.251Z,99937.19
2022-08-27T19:15:34.014Z,99944.69
2022-08-27T19:20:34.732Z,99956.94
2022-08-27T19:25:36.821Z,99958.44
2022-08-27T19:30:37.552Z,99963.00
2022-08-27T19:35:41.457Z,99958.59
2022-08-27T19:40:43.636Z,99952.47
2022-08-27T19:45:44.456Z,99958.59
2022-08-27T19:50:45.971Z,99959.06
2022-08-27T19:55:49.826Z,99949.63
2022-08-27T20:00:50.845Z,99951.59
2022-08-27T20:05:52.804Z,99952.25
2022-08-27T20:10:54.894Z,99949.75
2022-08-27T20:15:55.613Z,99957.44
2022-08-27T20:20:57.476Z,99960.66
2022-08-27T20:26:01.361Z,99960.91
2022-08-27T20:31:02.362Z,99955.41
2022-08-27T20:36:03.182Z,99951.19
2022-08-27T20:41:06.441Z,99953.72
2022-08-27T20:46:07.224Z,99956.31
2022-08-27T20:51:11.716Z,99960.53
2022-08-27T20:56:13.779Z,99963.38
2022-08-27T21:01:14.646Z,99955.41
2022-08-27T21:06:15.351Z,99955.13
2022-08-27T21:11:18.104Z,99961.03
2022-08-27T21:16:18.801Z,99953.69
2022-08-27T21:21:19.476Z,99950.66
2022-08-27T21:26:23.015Z,99954.22
2022-08-27T21:31:24.190Z,99949.09
2022-08-27T21:36:24.914Z,99953.16
2022-08-27T21:41:27.091Z,99958.78
2022-08-27T21:46:27.807Z,99954.63
2022-08-27T21:51:29.546Z,99945.47
2022-08-27T21:56:32.652Z,99956.69
2022-08-27T22:01:33.600Z,99958.66
2022-08-27T22:06:34.352Z,99963.16
2022-08-27T22:11:36.462Z,99955.28
2022-08-27T22:16:37.238Z,99958.28
2022-08-27T22:21:37.974Z,99961.91
2022-08-27T22:26:40.052Z,99961.69
2022-08-27T22:31:40.818Z,99959.31
2022-08-27T22:36:41.738Z,99958.13
2022-08-27T22:41:48.155Z,99953.38
2022-08-27T22:46:49.586Z,99958.41
2022-08-27T22:51:50.324Z,99961.91
2022-08-27T22:56:52.349Z,99957.69
2022-08-27T23:01:55.044Z,99960.38
2022-08-27T23:06:55.719Z,99965.44
2022-08-27T23:11:58.613Z,99965.72
2022-08-27T23:16:59.421Z,99965.84
2022-08-27T23:22:00.166Z,99969.34
2022-08-27T23:27:19.584Z,99971.34
2022-08-27T23:32:20.276Z,99972.75
2022-08-27T23:37:21.065Z,99975.94
2022-08-27T23:42:23.468Z,99983.31
2022-08-27T23:47:24.145Z,99978.19
2022-08-27T23:52:24.925Z,99982.91
2022-08-27T23:57:27.159Z,99984.66
